Time;durP1;ratioP1;P1;durP2;ratioP2;P2;SDS_P1;SDS_P2;PMS_P1;PMS_P2;Temp;Humidity;BMP_temperature;BMP_pressure;BME280_temperature;BME280_humidity;BME280_pressure;Samples;Min_cycle;Max_cycle;Signal;HPM_P1;HPM_P2
2023/01/27 00:00:36;;;;;;;12.80;8.07;;;;;;;;;;5072060;28;20263;-75
2023/01/27 00:03:03;;;;;;;10.77;7.60;;;;;;;;;;5075398;28;20206;-77
2023/01/27 00:05:30;;;;;;;10.27;8.30;;;;;;;;;;5054861;28;20232;-76
2023/01/27 00:07:58;;;;;;;17.33;9.63;;;;;;;;;;5052109;28;20231;-75
2023/01/27 00:10:25;;;;;;;13.13;7.70;;;;;;;;;;5044755;28;20342;-77
2023/01/27 00:15:39;;;;;;;12.27;8.27;;;;;;;;;;5045137;28;20222;-77
2023/01/27 00:18:06;;;;;;;10.93;7.97;;;;;;;;;;5050805;28;20300;-78
2023/01/27 00:26:11;;;;;;;8.80;6.83;;;;;;;;;;5052606;28;20206;-77
2023/01/27 00:28:39;;;;;;;8.30;6.30;;;;;;;;;;5025891;28;20207;-74
2023/01/27 00:33:54;;;;;;;8.20;6.83;;;;;;;;;;5050033;28;20214;-75
2023/01/27 00:36:22;;;;;;;10.87;7.23;;;;;;;;;;5044758;28;20271;-75
2023/01/27 00:38:49;;;;;;;12.00;8.77;;;;;;;;;;5051177;28;20253;-76
2023/01/27 00:41:20;;;;;;;9.60;6.53;;;;;;;;;;5046392;28;20238;-76
2023/01/27 00:43:51;;;;;;;9.37;7.37;;;;;;;;;;5050756;28;20197;-76
2023/01/27 00:46:20;;;;;;;9.63;7.40;;;;;;;;;;5047619;28;20210;-77
2023/01/27 00:48:47;;;;;;;9.23;6.67;;;;;;;;;;5051370;28;20618;-75
2023/01/27 00:51:16;;;;;;;9.57;7.53;;;;;;;;;;5042418;28;20231;-77
2023/01/27 00:53:43;;;;;;;10.23;7.10;;;;;;;;;;5050141;28;20330;-77
2023/01/27 00:56:10;;;;;;;9.50;6.70;;;;;;;;;;5040491;28;20241;-77
2023/01/27 00:58:38;;;;;;;11.33;7.73;;;;;;;;;;5048090;28;20765;-74
2023/01/27 01:01:07;;;;;;;11.27;8.00;;;;;;;;;;5046608;28;20238;-76
2023/01/27 01:03:35;;;;;;;11.87;8.03;;;;;;;;;;5047673;28;20320;-76
2023/01/27 01:06:04;;;;;;;10.37;7.03;;;;;;;;;;5048553;28;20318;-77
2023/01/27 01:08:32;;;;;;;10.90;7.80;;;;;;;;;;5047609;28;20213;-75
2023/01/27 01:10:59;;;;;;;10.53;7.30;;;;;;;;;;5035162;28;20236;-75
2023/01/27 01:13:27;;;;;;;10.77;7.23;;;;;;;;;;5047767;28;20222;-74
2023/01/27 01:15:56;;;;;;;9.97;7.63;;;;;;;;;;5046632;28;20224;-76
2023/01/27 01:18:24;;;;;;;9.53;7.60;;;;;;;;;;5048657;28;20276;-78
2023/01/27 01:20:52;;;;;;;10.90;7.60;;;;;;;;;;5044192;28;20337;-77
2023/01/27 01:23:19;;;;;;;11.27;7.73;;;;;;;;;;5049332;28;20219;-75
2023/01/27 01:25:53;;;;;;;10.67;7.70;;;;;;;;;;5046534;28;20669;-76
2023/01/27 01:28:21;;;;;;;12.70;8.67;;;;;;;;;;5030183;28;20198;-75
2023/01/27 01:30:48;;;;;;;17.83;10.60;;;;;;;;;;5026482;28;20313;-75
2023/01/27 01:33:16;;;;;;;16.23;9.33;;;;;;;;;;5033439;28;20214;-75
2023/01/27 01:35:43;;;;;;;14.40;9.03;;;;;;;;;;5068911;28;20202;-77
2023/01/27 01:38:10;;;;;;;13.43;8.20;;;;;;;;;;5079831;28;20708;-78
2023/01/27 01:40:42;;;;;;;15.30;9.37;;;;;;;;;;5062412;28;20300;-77
2023/01/27 01:43:14;;;;;;;16.17;10.23;;;;;;;;;;5058234;28;20210;-75
2023/01/27 01:45:47;;;;;;;15.97;9.37;;;;;;;;;;5033410;28;20198;-75
2023/01/27 01:48:22;;;;;;;14.10;9.67;;;;;;;;;;5054150;28;20202;-76
2023/01/27 01:50:55;;;;;;;12.63;8.83;;;;;;;;;;5046410;28;20221;-76
2023/01/27 01:53:28;;;;;;;13.87;9.30;;;;;;;;;;5048076;28;20205;-76
2023/01/27 01:55:56;;;;;;;14.17;8.83;;;;;;;;;;5048015;28;20216;-76
2023/01/27 01:58:26;;;;;;;10.53;7.83;;;;;;;;;;5039676;28;20203;-77
2023/01/27 02:00:55;;;;;;;11.23;8.63;;;;;;;;;;5042404;28;20225;-76
2023/01/27 02:03:25;;;;;;;11.87;8.20;;;;;;;;;;5039456;28;20202;-76
2023/01/27 02:05:53;;;;;;;10.30;7.63;;;;;;;;;;5048374;28;20199;-77
2023/01/27 02:08:30;;;;;;;10.10;7.50;;;;;;;;;;5046882;28;20212;-74
2023/01/27 02:10:57;;;;;;;8.83;7.10;;;;;;;;;;5026610;28;20261;-74
2023/01/27 02:13:25;;;;;;;9.93;6.93;;;;;;;;;;5050537;28;20210;-75
2023/01/27 02:15:52;;;;;;;8.20;7.03;;;;;;;;;;5048557;28;20707;-77
2023/01/27 02:18:21;;;;;;;9.47;7.00;;;;;;;;;;5050865;28;21029;-76
2023/01/27 02:20:50;;;;;;;9.17;6.70;;;;;;;;;;5045097;28;20232;-74
2023/01/27 02:23:21;;;;;;;10.37;7.13;;;;;;;;;;5050910;28;20245;-74
2023/01/27 02:25:57;;;;;;;12.27;7.27;;;;;;;;;;5043514;28;20202;-74
2023/01/27 02:28:28;;;;;;;9.80;7.10;;;;;;;;;;5027572;28;20197;-76
2023/01/27 02:30:56;;;;;;;10.20;7.50;;;;;;;;;;5046666;28;20241;-74
2023/01/27 02:33:23;;;;;;;11.03;7.37;;;;;;;;;;5044364;28;20578;-76
2023/01/27 02:36:03;;;;;;;11.40;7.67;;;;;;;;;;5043778;28;20272;-77
2023/01/27 02:38:33;;;;;;;11.70;7.83;;;;;;;;;;5039952;28;20225;-76
2023/01/27 02:41:23;;;;;;;10.47;7.40;;;;;;;;;;5021610;28;20221;-76
2023/01/27 02:43:51;;;;;;;9.43;7.53;;;;;;;;;;5030227;28;20205;-77
2023/01/27 02:46:19;;;;;;;9.07;6.90;;;;;;;;;;5043657;28;20277;-76
2023/01/27 02:48:46;;;;;;;10.47;8.10;;;;;;;;;;5025950;28;20207;-78
2023/01/27 02:51:13;;;;;;;13.13;8.60;;;;;;;;;;5043929;28;20242;-75
2023/01/27 02:53:41;;;;;;;14.67;9.23;;;;;;;;;;5037329;28;20208;-76
2023/01/27 02:56:08;;;;;;;14.60;9.47;;;;;;;;;;5040815;28;20205;-75
2023/01/27 02:58:35;;;;;;;12.83;8.80;;;;;;;;;;5039830;28;20207;-75
2023/01/27 03:01:02;;;;;;;12.13;9.13;;;;;;;;;;5042572;28;20226;-74
2023/01/27 03:03:35;;;;;;;12.13;7.97;;;;;;;;;;5043623;28;20213;-75
2023/01/27 03:06:03;;;;;;;11.97;8.37;;;;;;;;;;5038977;28;21237;-76
2023/01/27 03:08:30;;;;;;;11.30;7.77;;;;;;;;;;5038863;28;20306;-73
2023/01/27 03:10:57;;;;;;;11.03;7.90;;;;;;;;;;5037273;28;20351;-76
2023/01/27 03:13:26;;;;;;;9.00;6.90;;;;;;;;;;5039945;28;20229;-75
2023/01/27 03:18:46;;;;;;;11.70;8.37;;;;;;;;;;5038268;28;20312;-75
2023/01/27 03:21:13;;;;;;;12.07;8.60;;;;;;;;;;5019115;28;20303;-75
2023/01/27 03:23:41;;;;;;;12.33;8.67;;;;;;;;;;5022858;28;21223;-76
2023/01/27 03:26:09;;;;;;;12.20;8.90;;;;;;;;;;5040311;28;20207;-76
2023/01/27 03:28:36;;;;;;;12.63;8.47;;;;;;;;;;5038600;28;20206;-74
2023/01/27 03:31:08;;;;;;;11.07;8.03;;;;;;;;;;5049621;28;20244;-76
2023/01/27 03:33:35;;;;;;;10.80;7.30;;;;;;;;;;5055274;28;20225;-75
2023/01/27 03:47:07;;;;;;;12.93;8.40;;;;;;;;;;5056194;28;20664;-76
2023/01/27 03:49:34;;;;;;;11.93;8.93;;;;;;;;;;5063491;28;20206;-77
2023/01/27 03:52:02;;;;;;;11.90;8.27;;;;;;;;;;5067578;28;20601;-75
2023/01/27 03:54:29;;;;;;;13.63;8.43;;;;;;;;;;5044924;28;20569;-77
2023/01/27 03:56:56;;;;;;;12.80;8.60;;;;;;;;;;5064441;28;20629;-74
2023/01/27 03:59:23;;;;;;;13.83;8.73;;;;;;;;;;5038010;28;20202;-75
2023/01/27 04:01:50;;;;;;;13.97;8.60;;;;;;;;;;5042208;28;20222;-76
2023/01/27 04:07:03;;;;;;;14.20;9.00;;;;;;;;;;5048021;28;20220;-76
2023/01/27 04:09:35;;;;;;;14.43;9.33;;;;;;;;;;5053350;28;20399;-76
2023/01/27 04:12:04;;;;;;;12.63;8.87;;;;;;;;;;5048538;28;20296;-77
2023/01/27 04:14:36;;;;;;;14.80;9.20;;;;;;;;;;5049309;28;20207;-75
2023/01/27 04:17:05;;;;;;;16.50;10.27;;;;;;;;;;5049687;28;20213;-74
2023/01/27 04:19:33;;;;;;;13.87;9.17;;;;;;;;;;5049946;28;20217;-77
2023/01/27 04:22:00;;;;;;;13.83;8.73;;;;;;;;;;5051348;28;20318;-75
2023/01/27 04:24:28;;;;;;;13.33;9.13;;;;;;;;;;5053111;28;20209;-76
2023/01/27 04:26:56;;;;;;;22.20;12.93;;;;;;;;;;5046861;28;20251;-74
2023/01/27 04:29:26;;;;;;;20.10;10.97;;;;;;;;;;5028060;28;23120;-77
2023/01/27 04:31:54;;;;;;;48.73;23.67;;;;;;;;;;5047596;28;20236;-76
2023/01/27 04:34:21;;;;;;;41.87;19.37;;;;;;;;;;5047508;28;20198;-77
2023/01/27 04:36:48;;;;;;;38.67;22.03;;;;;;;;;;5045663;28;20209;-74
2023/01/27 04:39:16;;;;;;;17.50;11.23;;;;;;;;;;5053587;28;20298;-76
2023/01/27 04:41:44;;;;;;;16.03;10.67;;;;;;;;;;5029585;28;20225;-76
2023/01/27 04:44:12;;;;;;;12.93;8.77;;;;;;;;;;5053704;28;20203;-77
2023/01/27 04:46:39;;;;;;;12.23;8.73;;;;;;;;;;5029734;28;20275;-76
2023/01/27 04:49:07;;;;;;;13.07;8.43;;;;;;;;;;5047910;28;20205;-76
2023/01/27 04:51:34;;;;;;;14.90;9.70;;;;;;;;;;5045667;28;20226;-76
2023/01/27 04:54:02;;;;;;;13.43;9.13;;;;;;;;;;5053646;28;20198;-76
2023/01/27 04:56:32;;;;;;;11.87;8.23;;;;;;;;;;5029070;28;20319;-76
2023/01/27 04:59:00;;;;;;;16.23;9.10;;;;;;;;;;5053245;28;20198;-76
2023/01/27 05:01:28;;;;;;;15.03;8.47;;;;;;;;;;5031862;28;20234;-77
2023/01/27 05:03:55;;;;;;;12.73;8.57;;;;;;;;;;5050017;28;20290;-75
2023/01/27 05:06:23;;;;;;;12.63;8.70;;;;;;;;;;5046539;28;20220;-76
2023/01/27 05:08:50;;;;;;;15.47;9.63;;;;;;;;;;5045478;28;20232;-76
2023/01/27 05:11:18;;;;;;;18.00;10.40;;;;;;;;;;5045179;28;20235;-75
2023/01/27 05:13:46;;;;;;;27.30;14.93;;;;;;;;;;5043707;28;20877;-76
2023/01/27 05:16:14;;;;;;;30.60;18.13;;;;;;;;;;5022521;28;20216;-77
2023/01/27 05:18:42;;;;;;;24.83;14.57;;;;;;;;;;5041895;28;21024;-73
2023/01/27 05:21:12;;;;;;;17.47;10.23;;;;;;;;;;5038475;28;20239;-77
2023/01/27 05:23:39;;;;;;;17.67;11.63;;;;;;;;;;5030357;28;20901;-75
2023/01/27 05:26:07;;;;;;;17.97;10.70;;;;;;;;;;5043025;28;20233;-75
2023/01/27 05:28:35;;;;;;;14.50;10.10;;;;;;;;;;5044059;28;21177;-76
2023/01/27 05:31:13;;;;;;;14.33;10.67;;;;;;;;;;5025820;28;20295;-76
2023/01/27 05:33:41;;;;;;;17.17;10.83;;;;;;;;;;5050652;28;20224;-76
2023/01/27 05:36:11;;;;;;;22.90;15.07;;;;;;;;;;5067683;28;20197;-76
2023/01/27 05:38:38;;;;;;;19.03;11.67;;;;;;;;;;5064153;28;20211;-75
2023/01/27 05:41:06;;;;;;;19.33;11.57;;;;;;;;;;5062623;28;20308;-77
2023/01/27 05:43:35;;;;;;;24.93;14.27;;;;;;;;;;5058606;28;20219;-77
2023/01/27 05:46:02;;;;;;;21.13;11.50;;;;;;;;;;5046519;28;20224;-76
2023/01/27 05:48:29;;;;;;;19.80;11.60;;;;;;;;;;5042756;28;20209;-75
2023/01/27 05:50:57;;;;;;;21.30;10.93;;;;;;;;;;5054079;28;20225;-77
2023/01/27 05:53:25;;;;;;;25.80;11.47;;;;;;;;;;5034565;28;20234;-76
2023/01/27 05:55:52;;;;;;;21.37;10.97;;;;;;;;;;5058310;28;20194;-77
2023/01/27 05:58:19;;;;;;;24.33;10.27;;;;;;;;;;5057123;28;20289;-74
2023/01/27 06:00:46;;;;;;;19.30;11.33;;;;;;;;;;5047441;28;20225;-75
2023/01/27 06:03:14;;;;;;;21.13;10.27;;;;;;;;;;5035574;28;20214;-76
2023/01/27 06:05:55;;;;;;;20.03;11.37;;;;;;;;;;5046157;28;20213;-75
2023/01/27 06:08:25;;;;;;;22.40;12.03;;;;;;;;;;5045281;28;20797;-76
2023/01/27 06:10:53;;;;;;;26.50;11.87;;;;;;;;;;5055287;28;21691;-74
2023/01/27 06:13:22;;;;;;;26.10;13.37;;;;;;;;;;5043426;28;20710;-74
2023/01/27 06:15:49;;;;;;;22.83;12.27;;;;;;;;;;5019658;28;20216;-72
2023/01/27 06:18:17;;;;;;;23.53;12.87;;;;;;;;;;5041373;28;20215;-74
2023/01/27 06:20:45;;;;;;;23.33;12.30;;;;;;;;;;5039705;28;20876;-76
2023/01/27 06:23:14;;;;;;;21.67;12.27;;;;;;;;;;5040882;28;20211;-77
2023/01/27 06:25:42;;;;;;;22.87;12.47;;;;;;;;;;5037110;28;20593;-76
2023/01/27 06:28:09;;;;;;;22.70;12.37;;;;;;;;;;5041664;28;20248;-74
2023/01/27 06:30:46;;;;;;;23.00;11.37;;;;;;;;;;5032566;28;20230;-77
2023/01/27 06:33:13;;;;;;;21.43;12.87;;;;;;;;;;5022579;28;20222;-74
2023/01/27 06:35:41;;;;;;;22.50;12.37;;;;;;;;;;5038766;28;20202;-75
2023/01/27 06:38:11;;;;;;;20.87;12.40;;;;;;;;;;5040779;28;20293;-76
2023/01/27 06:40:38;;;;;;;22.80;12.57;;;;;;;;;;5038701;28;20230;-77
2023/01/27 06:43:10;;;;;;;19.93;12.53;;;;;;;;;;5031813;28;20216;-73
2023/01/27 06:45:37;;;;;;;20.50;12.47;;;;;;;;;;5035676;28;20231;-76
2023/01/27 06:48:07;;;;;;;20.97;13.27;;;;;;;;;;5033309;28;20213;-77
2023/01/27 06:50:35;;;;;;;50.53;30.10;;;;;;;;;;5018979;28;20201;-77
2023/01/27 06:53:04;;;;;;;27.40;15.77;;;;;;;;;;5034253;28;22110;-76
2023/01/27 06:55:32;;;;;;;25.17;15.70;;;;;;;;;;5038022;28;20296;-76
2023/01/27 06:58:00;;;;;;;18.17;11.07;;;;;;;;;;5042619;28;20205;-76
2023/01/27 07:00:27;;;;;;;18.27;11.50;;;;;;;;;;5039655;28;20297;-76
2023/01/27 07:02:55;;;;;;;16.93;10.47;;;;;;;;;;5051768;28;20209;-77
2023/01/27 07:05:23;;;;;;;17.13;10.83;;;;;;;;;;5042749;28;20205;-76
2023/01/27 07:07:50;;;;;;;16.77;9.70;;;;;;;;;;5050916;28;20387;-77
2023/01/27 07:10:17;;;;;;;18.60;11.27;;;;;;;;;;5039825;28;20281;-77
2023/01/27 07:12:44;;;;;;;19.00;12.33;;;;;;;;;;5043999;28;20218;-77
2023/01/27 07:15:12;;;;;;;21.43;12.73;;;;;;;;;;5042068;28;20302;-77
2023/01/27 07:17:39;;;;;;;19.43;11.27;;;;;;;;;;5044012;28;20363;-77
2023/01/27 07:20:08;;;;;;;17.77;10.77;;;;;;;;;;5025938;28;20630;-74
2023/01/27 07:22:35;;;;;;;17.80;11.07;;;;;;;;;;5032206;28;20326;-76
2023/01/27 07:25:03;;;;;;;22.57;11.83;;;;;;;;;;5026460;28;20203;-76
2023/01/27 07:27:31;;;;;;;20.83;11.70;;;;;;;;;;5042650;28;20222;-76
2023/01/27 07:29:58;;;;;;;17.00;10.57;;;;;;;;;;5053971;28;20209;-74
2023/01/27 07:32:25;;;;;;;17.40;10.30;;;;;;;;;;5047465;28;20221;-77
2023/01/27 07:34:54;;;;;;;16.30;9.43;;;;;;;;;;5057209;28;20198;-76
2023/01/27 07:37:21;;;;;;;15.83;9.17;;;;;;;;;;5064880;28;20627;-75
2023/01/27 07:39:48;;;;;;;13.57;8.70;;;;;;;;;;5073402;28;20738;-76
2023/01/27 07:42:16;;;;;;;12.60;8.93;;;;;;;;;;5067660;28;20610;-76
2023/01/27 07:44:43;;;;;;;14.03;8.73;;;;;;;;;;5037940;28;20248;-76
2023/01/27 07:47:10;;;;;;;12.27;8.40;;;;;;;;;;5056019;28;20594;-76
2023/01/27 07:49:37;;;;;;;12.40;8.37;;;;;;;;;;5061338;28;20205;-76
2023/01/27 07:52:04;;;;;;;12.03;8.00;;;;;;;;;;5064091;28;20371;-76
2023/01/27 07:54:32;;;;;;;12.70;8.57;;;;;;;;;;5064828;28;20265;-77
2023/01/27 07:57:00;;;;;;;13.37;7.83;;;;;;;;;;5061078;28;20194;-75
2023/01/27 07:59:27;;;;;;;12.43;8.00;;;;;;;;;;5044363;28;20312;-75
2023/01/27 08:01:55;;;;;;;10.10;7.00;;;;;;;;;;5042669;28;20221;-76
2023/01/27 08:04:22;;;;;;;9.50;7.23;;;;;;;;;;5050672;28;20201;-77
2023/01/27 08:06:49;;;;;;;10.33;6.43;;;;;;;;;;5041524;28;20208;-76
2023/01/27 08:09:17;;;;;;;10.27;6.83;;;;;;;;;;5045989;28;20709;-74
2023/01/27 08:11:44;;;;;;;10.77;6.80;;;;;;;;;;5041852;28;20237;-74
2023/01/27 08:14:11;;;;;;;10.83;7.17;;;;;;;;;;5054643;28;20218;-74
2023/01/27 08:16:38;;;;;;;9.37;6.87;;;;;;;;;;5043362;28;20206;-76
2023/01/27 08:19:06;;;;;;;10.70;6.97;;;;;;;;;;5047005;28;20212;-77
2023/01/27 08:21:33;;;;;;;12.00;7.17;;;;;;;;;;5050268;28;20230;-76
2023/01/27 08:24:00;;;;;;;11.67;6.67;;;;;;;;;;5037064;28;20651;-74
2023/01/27 08:26:28;;;;;;;11.37;8.47;;;;;;;;;;5042386;28;20267;-75
2023/01/27 08:28:55;;;;;;;14.50;7.47;;;;;;;;;;5046651;28;20209;-76
2023/01/27 08:31:22;;;;;;;12.87;8.47;;;;;;;;;;5047394;28;20217;-77
2023/01/27 08:33:51;;;;;;;13.10;8.13;;;;;;;;;;5048891;28;20230;-77
2023/01/27 08:36:19;;;;;;;15.57;8.70;;;;;;;;;;5028343;28;20302;-76
2023/01/27 08:38:49;;;;;;;13.67;8.77;;;;;;;;;;5049693;28;20216;-75
2023/01/27 08:41:18;;;;;;;13.03;8.90;;;;;;;;;;5025771;28;20222;-77
2023/01/27 08:43:46;;;;;;;15.47;8.70;;;;;;;;;;5052208;28;20206;-75
2023/01/27 08:46:13;;;;;;;14.67;9.60;;;;;;;;;;5027719;28;20265;-76
2023/01/27 08:48:41;;;;;;;15.93;9.57;;;;;;;;;;5044227;28;20259;-76
2023/01/27 08:51:09;;;;;;;16.73;9.70;;;;;;;;;;5044378;28;20768;-76
2023/01/27 08:53:36;;;;;;;15.60;9.70;;;;;;;;;;5032103;28;20230;-75
2023/01/27 08:56:06;;;;;;;18.30;10.03;;;;;;;;;;5030103;28;20205;-75
2023/01/27 08:58:34;;;;;;;15.03;8.80;;;;;;;;;;5044062;28;20209;-77
2023/01/27 09:01:03;;;;;;;19.60;9.97;;;;;;;;;;5026509;28;20225;-75
2023/01/27 09:03:30;;;;;;;21.53;9.83;;;;;;;;;;5041098;28;22522;-77
2023/01/27 09:05:58;;;;;;;18.73;9.93;;;;;;;;;;5036092;28;20654;-76
2023/01/27 09:08:25;;;;;;;21.93;11.47;;;;;;;;;;5042231;28;20198;-76
2023/01/27 09:10:53;;;;;;;19.10;10.33;;;;;;;;;;5034875;28;20230;-76
2023/01/27 09:13:21;;;;;;;41.77;10.30;;;;;;;;;;5023597;28;20227;-77
2023/01/27 09:15:50;;;;;;;31.90;11.03;;;;;;;;;;5035996;28;20237;-77
2023/01/27 09:18:17;;;;;;;49.20;12.67;;;;;;;;;;5040808;28;20213;-76
2023/01/27 09:20:45;;;;;;;28.40;12.30;;;;;;;;;;5040779;28;20229;-76
2023/01/27 09:23:12;;;;;;;24.37;13.30;;;;;;;;;;5039512;28;20214;-77
2023/01/27 09:25:39;;;;;;;22.77;12.57;;;;;;;;;;5042565;28;20202;-77
2023/01/27 09:28:15;;;;;;;30.07;12.30;;;;;;;;;;5035461;28;20783;-76
2023/01/27 09:30:46;;;;;;;29.40;12.10;;;;;;;;;;5039675;28;21360;-75
2023/01/27 09:33:14;;;;;;;23.60;12.73;;;;;;;;;;5030978;28;20897;-76
2023/01/27 09:35:57;;;;;;;26.83;12.83;;;;;;;;;;5065175;28;20202;-76
2023/01/27 09:38:26;;;;;;;30.97;12.70;;;;;;;;;;5069919;28;20682;-76
2023/01/27 09:41:08;;;;;;;35.63;12.40;;;;;;;;;;5062492;28;20229;-77
2023/01/27 09:43:35;;;;;;;34.53;12.53;;;;;;;;;;5056399;28;20217;-77
2023/01/27 09:46:22;;;;;;;27.20;13.53;;;;;;;;;;5046361;28;20213;-78
2023/01/27 09:49:04;;;;;;;31.17;12.57;;;;;;;;;;5039470;28;20213;-76
2023/01/27 09:51:47;;;;;;;63.57;14.67;;;;;;;;;;5032316;28;20333;-77
2023/01/27 09:54:32;;;;;;;58.40;15.63;;;;;;;;;;5038874;28;20698;-77
2023/01/27 09:57:04;;;;;;;42.40;12.67;;;;;;;;;;5020759;28;20213;-75
2023/01/27 09:59:43;;;;;;;27.13;12.17;;;;;;;;;;5036184;28;20208;-76
2023/01/27 10:02:23;;;;;;;39.63;11.77;;;;;;;;;;5041160;28;20297;-77
2023/01/27 10:04:55;;;;;;;48.60;13.10;;;;;;;;;;5046024;28;20243;-76
2023/01/27 10:07:40;;;;;;;28.67;12.60;;;;;;;;;;5042510;28;20221;-76
2023/01/27 10:10:07;;;;;;;21.10;12.33;;;;;;;;;;5044436;28;20198;-75
2023/01/27 10:12:44;;;;;;;21.63;13.07;;;;;;;;;;5050775;28;20231;-75
2023/01/27 10:15:11;;;;;;;23.10;12.43;;;;;;;;;;5046128;28;20956;-75
2023/01/27 10:17:54;;;;;;;21.27;12.43;;;;;;;;;;5041870;28;20209;-77
2023/01/27 10:20:21;;;;;;;18.63;10.50;;;;;;;;;;5041866;28;20219;-76
2023/01/27 10:23:07;;;;;;;15.90;10.43;;;;;;;;;;5048216;28;20198;-77
2023/01/27 10:25:40;;;;;;;17.63;10.43;;;;;;;;;;5046095;28;20219;-76
2023/01/27 10:28:19;;;;;;;21.07;12.63;;;;;;;;;;5042691;28;20202;-75
2023/01/27 10:30:59;;;;;;;19.67;11.50;;;;;;;;;;5044073;28;20315;-75
2023/01/27 10:33:44;;;;;;;16.00;10.33;;;;;;;;;;5048559;28;20217;-76
2023/01/27 10:36:28;;;;;;;25.37;11.83;;;;;;;;;;5045347;28;20210;-76
2023/01/27 10:39:05;;;;;;;20.57;12.20;;;;;;;;;;5037808;28;20296;-75
2023/01/27 10:41:37;;;;;;;22.73;12.07;;;;;;;;;;5042663;28;20978;-77
2023/01/27 10:44:08;;;;;;;36.37;13.27;;;;;;;;;;5042593;28;20300;-76
2023/01/27 10:46:35;;;;;;;63.00;14.10;;;;;;;;;;5040602;28;20202;-76
2023/01/27 10:49:40;;;;;;;28.93;12.67;;;;;;;;;;5044784;28;20238;-77
2023/01/27 10:52:14;;;;;;;30.00;12.63;;;;;;;;;;4994974;28;20249;-76
2023/01/27 10:54:49;;;;;;;46.20;14.10;;;;;;;;;;5000458;28;20227;-77
2023/01/27 10:57:30;;;;;;;29.10;14.63;;;;;;;;;;5007008;28;20213;-77
2023/01/27 11:00:05;;;;;;;29.20;12.70;;;;;;;;;;5042144;28;20210;-76
2023/01/27 11:02:52;;;;;;;25.37;13.40;;;;;;;;;;5038192;28;20214;-77
2023/01/27 11:05:26;;;;;;;27.47;13.87;;;;;;;;;;5044473;28;20698;-77
2023/01/27 11:07:58;;;;;;;25.53;12.63;;;;;;;;;;5046716;28;21199;-74
2023/01/27 11:10:30;;;;;;;42.30;13.63;;;;;;;;;;5059891;28;21552;-76
2023/01/27 11:12:58;;;;;;;31.50;12.90;;;;;;;;;;5059423;28;20313;-77
2023/01/27 11:15:34;;;;;;;27.60;12.43;;;;;;;;;;5033718;28;20224;-77
2023/01/27 11:18:17;;;;;;;29.53;12.43;;;;;;;;;;5053034;28;20297;-76
2023/01/27 11:20:46;;;;;;;33.37;13.53;;;;;;;;;;5051400;28;20747;-77
2023/01/27 11:23:28;;;;;;;25.70;13.63;;;;;;;;;;5030651;28;20205;-77
2023/01/27 11:26:07;;;;;;;26.47;14.00;;;;;;;;;;5036617;28;20565;-76
2023/01/27 11:28:45;;;;;;;32.93;14.07;;;;;;;;;;5054710;28;20601;-76
2023/01/27 11:31:28;;;;;;;56.43;14.67;;;;;;;;;;5063499;28;20726;-76
2023/01/27 11:34:15;;;;;;;30.77;14.87;;;;;;;;;;5065301;28;20227;-76
2023/01/27 11:36:42;;;;;;;34.37;14.60;;;;;;;;;;5062999;28;20203;-76
2023/01/27 11:39:10;;;;;;;36.93;14.33;;;;;;;;;;5061290;28;20202;-77
2023/01/27 11:41:43;;;;;;;27.33;14.17;;;;;;;;;;5023300;28;20225;-74
2023/01/27 11:44:18;;;;;;;35.70;15.30;;;;;;;;;;5047151;28;20218;-77
2023/01/27 11:46:46;;;;;;;35.20;14.90;;;;;;;;;;5043701;28;20203;-77
2023/01/27 11:49:17;;;;;;;30.07;14.57;;;;;;;;;;5041365;28;20224;-76
2023/01/27 11:51:44;;;;;;;30.97;15.07;;;;;;;;;;5046786;28;20234;-76
2023/01/27 11:54:21;;;;;;;26.20;14.67;;;;;;;;;;5040515;28;20231;-77
2023/01/27 11:56:49;;;;;;;25.37;14.47;;;;;;;;;;5055482;28;20631;-76
2023/01/27 11:59:25;;;;;;;24.73;13.77;;;;;;;;;;5067718;28;20198;-76
2023/01/27 12:01:54;;;;;;;24.07;13.43;;;;;;;;;;5056413;28;20229;-77
2023/01/27 12:04:45;;;;;;;25.07;13.50;;;;;;;;;;5068413;28;20276;-77
2023/01/27 12:07:15;;;;;;;25.00;13.10;;;;;;;;;;5048758;28;20297;-76
2023/01/27 12:09:43;;;;;;;21.93;12.23;;;;;;;;;;5057591;28;20210;-77
2023/01/27 12:12:14;;;;;;;23.03;12.47;;;;;;;;;;5047652;28;20233;-76
2023/01/27 12:14:49;;;;;;;24.43;12.97;;;;;;;;;;5046783;28;20239;-77
2023/01/27 12:17:22;;;;;;;23.87;13.20;;;;;;;;;;5046525;28;20206;-77
2023/01/27 12:19:51;;;;;;;25.80;13.60;;;;;;;;;;5049180;28;22051;-77
2023/01/27 12:22:22;;;;;;;24.67;14.00;;;;;;;;;;5044703;28;20432;-74
2023/01/27 12:24:52;;;;;;;28.00;13.97;;;;;;;;;;5043405;28;20462;-76
2023/01/27 12:27:29;;;;;;;27.67;14.30;;;;;;;;;;5041026;28;21179;-76
2023/01/27 12:29:59;;;;;;;27.00;14.23;;;;;;;;;;5045993;28;20668;-77
2023/01/27 12:32:44;;;;;;;22.77;13.30;;;;;;;;;;5045120;28;20250;-76
2023/01/27 12:35:25;;;;;;;26.50;14.47;;;;;;;;;;5052335;28;20260;-75
2023/01/27 12:38:00;;;;;;;29.70;15.40;;;;;;;;;;5047068;28;20672;-77
2023/01/27 12:40:28;;;;;;;26.07;14.50;;;;;;;;;;5040502;28;20202;-75
2023/01/27 12:43:01;;;;;;;24.87;13.53;;;;;;;;;;5042833;28;20206;-77
2023/01/27 12:45:29;;;;;;;24.77;14.27;;;;;;;;;;5039016;28;20212;-74
2023/01/27 12:47:56;;;;;;;26.87;13.90;;;;;;;;;;5059400;28;20236;-76
2023/01/27 12:50:25;;;;;;;25.67;13.83;;;;;;;;;;5068541;28;20215;-76
2023/01/27 12:53:04;;;;;;;23.47;13.30;;;;;;;;;;5070880;28;20648;-77
2023/01/27 12:55:33;;;;;;;21.87;12.90;;;;;;;;;;5065351;28;20299;-76
2023/01/27 12:58:01;;;;;;;21.87;12.03;;;;;;;;;;5035415;28;20299;-74
2023/01/27 13:00:29;;;;;;;20.17;11.90;;;;;;;;;;5020473;28;20209;-74
2023/01/27 13:03:02;;;;;;;21.00;12.13;;;;;;;;;;5032558;28;20875;-75
2023/01/27 13:05:35;;;;;;;23.63;12.73;;;;;;;;;;5037657;28;20299;-76
2023/01/27 13:08:02;;;;;;;22.67;11.73;;;;;;;;;;5024707;28;21424;-76
2023/01/27 13:10:29;;;;;;;20.47;11.50;;;;;;;;;;5043316;28;20212;-76
2023/01/27 13:13:00;;;;;;;18.77;12.03;;;;;;;;;;5042316;28;20726;-76
2023/01/27 13:15:31;;;;;;;16.40;10.43;;;;;;;;;;5044897;28;20229;-77
2023/01/27 13:17:59;;;;;;;16.00;10.60;;;;;;;;;;5048662;28;20206;-76
2023/01/27 13:20:27;;;;;;;16.50;9.57;;;;;;;;;;5040278;28;20211;-74
2023/01/27 13:23:13;;;;;;;14.83;9.50;;;;;;;;;;5026329;28;20205;-74
2023/01/27 13:25:56;;;;;;;17.43;9.97;;;;;;;;;;5045307;28;20217;-75
2023/01/27 13:28:26;;;;;;;16.23;9.87;;;;;;;;;;5046064;28;20198;-76
2023/01/27 13:30:56;;;;;;;16.77;10.13;;;;;;;;;;5040365;28;20241;-76
2023/01/27 13:33:24;;;;;;;16.87;9.93;;;;;;;;;;5055394;28;20215;-75
2023/01/27 13:35:57;;;;;;;12.97;9.10;;;;;;;;;;5074353;28;20213;-75
2023/01/27 13:38:30;;;;;;;13.77;8.73;;;;;;;;;;5063832;28;20281;-77
2023/01/27 13:40:57;;;;;;;14.70;9.47;;;;;;;;;;5075064;28;20209;-77
2023/01/27 13:43:32;;;;;;;14.40;8.70;;;;;;;;;;5059713;28;20200;-77
2023/01/27 13:46:09;;;;;;;16.10;9.83;;;;;;;;;;5043494;28;20212;-75
2023/01/27 13:48:48;;;;;;;16.73;9.53;;;;;;;;;;5041305;28;20268;-74
2023/01/27 13:51:16;;;;;;;15.53;9.90;;;;;;;;;;5044742;28;20229;-77
2023/01/27 13:53:46;;;;;;;14.73;9.63;;;;;;;;;;5039122;28;20297;-77
2023/01/27 13:56:19;;;;;;;15.13;9.57;;;;;;;;;;5040528;28;20222;-74
2023/01/27 13:58:46;;;;;;;14.83;9.83;;;;;;;;;;5040860;28;20211;-75
2023/01/27 14:01:19;;;;;;;14.93;10.03;;;;;;;;;;5038089;28;20227;-77
2023/01/27 14:03:57;;;;;;;13.73;8.93;;;;;;;;;;5042051;28;20607;-76
2023/01/27 14:06:37;;;;;;;15.20;9.47;;;;;;;;;;5039930;28;20198;-76
2023/01/27 14:09:19;;;;;;;16.60;9.87;;;;;;;;;;5039132;28;20201;-76
2023/01/27 14:11:50;;;;;;;16.43;10.10;;;;;;;;;;5037238;28;20229;-74
2023/01/27 14:14:24;;;;;;;15.67;9.93;;;;;;;;;;5043662;28;20230;-76
2023/01/27 14:16:51;;;;;;;14.73;9.03;;;;;;;;;;5038884;28;20301;-75
2023/01/27 14:19:37;;;;;;;16.00;10.63;;;;;;;;;;5045902;28;20198;-74
2023/01/27 14:22:13;;;;;;;15.37;10.13;;;;;;;;;;5042752;28;20379;-75
2023/01/27 14:24:46;;;;;;;19.30;10.73;;;;;;;;;;5040619;28;20278;-76
2023/01/27 14:27:39;;;;;;;18.40;10.87;;;;;;;;;;5045945;28;20217;-75
2023/01/27 14:30:13;;;;;;;16.57;10.53;;;;;;;;;;5043044;28;20216;-77
2023/01/27 14:32:56;;;;;;;15.47;10.40;;;;;;;;;;5045373;28;20378;-77
2023/01/27 14:35:33;;;;;;;16.33;10.73;;;;;;;;;;5041201;28;20319;-77
2023/01/27 14:38:00;;;;;;;17.63;11.17;;;;;;;;;;5042524;28;20200;-76
2023/01/27 14:40:39;;;;;;;17.27;11.77;;;;;;;;;;5046490;28;20236;-77
2023/01/27 14:43:09;;;;;;;20.37;12.10;;;;;;;;;;5040399;28;20231;-76
2023/01/27 14:45:38;;;;;;;19.77;12.03;;;;;;;;;;5043103;28;20670;-75
2023/01/27 14:48:38;;;;;;;20.83;12.30;;;;;;;;;;5039944;28;20701;-77
2023/01/27 14:51:06;;;;;;;22.50;12.80;;;;;;;;;;5042767;28;20223;-74
2023/01/27 14:53:33;;;;;;;27.53;14.73;;;;;;;;;;5038841;28;20584;-77
2023/01/27 14:56:19;;;;;;;27.37;15.87;;;;;;;;;;5039467;28;20236;-76
2023/01/27 14:58:55;;;;;;;23.83;13.73;;;;;;;;;;5038238;28;20207;-78
2023/01/27 15:01:26;;;;;;;26.63;14.03;;;;;;;;;;5020366;28;20239;-76
2023/01/27 15:03:53;;;;;;;25.40;15.40;;;;;;;;;;5048900;28;20206;-75
2023/01/27 15:06:42;;;;;;;26.83;13.63;;;;;;;;;;5037938;28;20218;-75
2023/01/27 15:09:15;;;;;;;27.60;14.63;;;;;;;;;;5036227;28;20215;-76
2023/01/27 15:11:50;;;;;;;26.20;13.93;;;;;;;;;;5043145;28;20236;-77